Poplar Grove, Illinois
Current Conditions -  °F | °C
As of 4:16 AM on Saturday 25 Oct 2014 (Local Time) from KRFD Reporting Station
Light Fog Light Fog  
Wind Chill: 58°   Ceiling: 1400
Heat Index: 58°   Visibility: 4mi
Dew Point: 55°   Wind: 3mph
Humidity: 90%   Direction: 270°W
Pressure: 29.93"   Gusts: NA
Location:  42.37°N, 88.82°W
Report Text: KRFD 250916Z 27003KT 4SM BCFG BR OVC014 14/13 A2993 RMK AO2 VIS SW-W 2 T01440128
Loading
Personal Weather Stations






























Interactive Weather Map
Tropical Storm Tracking
New forecast layout! Learn more

10-Day Weather Forecast

Advertisements
Track Severe Weather on mobile